sensor_id;sensor_type;location;lat;lon;timestamp;temperature;humidity
22503;DHT22;11418;48.118;9.992;2023-05-01T00:01:59;7.50;99.90
22503;DHT22;11418;48.118;9.992;2023-05-01T00:06:01;7.50;99.90
22503;DHT22;11418;48.118;9.992;2023-05-01T00:10:02;7.40;99.90
22503;DHT22;11418;48.118;9.992;2023-05-01T00:14:02;7.30;99.90
22503;DHT22;11418;48.118;9.992;2023-05-01T00:18:03;7.30;99.90
22503;DHT22;11418;48.118;9.992;2023-05-01T00:22:04;7.30;99.90
22503;DHT22;11418;48.118;9.992;2023-05-01T00:26:04;7.20;99.90
22503;DHT22;11418;48.118;9.992;2023-05-01T00:30:05;7.30;99.90
22503;DHT22;11418;48.118;9.992;2023-05-01T00:34:06;7.20;99.90
22503;DHT22;11418;48.118;9.992;2023-05-01T00:38:07;7.10;99.90
22503;DHT22;11418;48.118;9.992;2023-05-01T00:42:07;7.10;99.90
22503;DHT22;11418;48.118;9.992;2023-05-01T00:46:08;7.00;99.90
22503;DHT22;11418;48.118;9.992;2023-05-01T00:50:09;6.90;99.90
22503;DHT22;11418;48.118;9.992;2023-05-01T00:54:10;6.90;99.90
22503;DHT22;11418;48.118;9.992;2023-05-01T00:58:10;7.00;99.90
22503;DHT22;11418;48.118;9.992;2023-05-01T01:02:11;6.90;99.90
22503;DHT22;11418;48.118;9.992;2023-05-01T01:06:14;6.90;99.90
22503;DHT22;11418;48.118;9.992;2023-05-01T01:14:32;7.00;99.90
22503;DHT22;11418;48.118;9.992;2023-05-01T01:18:47;7.00;99.90
22503;DHT22;11418;48.118;9.992;2023-05-01T01:22:51;7.00;99.90
22503;DHT22;11418;48.118;9.992;2023-05-01T01:35:17;6.80;99.90
22503;DHT22;11418;48.118;9.992;2023-05-01T01:43:21;6.90;99.90
22503;DHT22;11418;48.118;9.992;2023-05-01T01:47:26;7.10;99.90
22503;DHT22;11418;48.118;9.992;2023-05-01T01:51:30;7.00;99.90
22503;DHT22;11418;48.118;9.992;2023-05-01T01:55:31;7.10;99.90
22503;DHT22;11418;48.118;9.992;2023-05-01T01:59:34;7.10;99.90
22503;DHT22;11418;48.118;9.992;2023-05-01T02:03:34;7.20;99.90
22503;DHT22;11418;48.118;9.992;2023-05-01T02:07:38;7.90;99.90
22503;DHT22;11418;48.118;9.992;2023-05-01T02:11:39;7.70;99.90
22503;DHT22;11418;48.118;9.992;2023-05-01T02:15:40;7.70;99.90
22503;DHT22;11418;48.118;9.992;2023-05-01T02:19:41;7.60;99.90
22503;DHT22;11418;48.118;9.992;2023-05-01T02:23:43;7.50;99.90
22503;DHT22;11418;48.118;9.992;2023-05-01T02:27:46;7.50;99.90
22503;DHT22;11418;48.118;9.992;2023-05-01T02:31:46;7.60;99.90
22503;DHT22;11418;48.118;9.992;2023-05-01T02:35:47;8.40;99.90
22503;DHT22;11418;48.118;9.992;2023-05-01T02:39:47;8.30;99.90
22503;DHT22;11418;48.118;9.992;2023-05-01T02:43:50;8.20;99.90
22503;DHT22;11418;48.118;9.992;2023-05-01T02:47:53;8.40;99.90
22503;DHT22;11418;48.118;9.992;2023-05-01T02:51:55;8.60;99.90
22503;DHT22;11418;48.118;9.992;2023-05-01T02:55:56;8.30;99.90
22503;DHT22;11418;48.118;9.992;2023-05-01T02:59:57;8.00;99.90
22503;DHT22;11418;48.118;9.992;2023-05-01T03:03:58;8.00;99.90
22503;DHT22;11418;48.118;9.992;2023-05-01T03:07:58;7.90;99.90
22503;DHT22;11418;48.118;9.992;2023-05-01T03:11:59;8.30;99.90
22503;DHT22;11418;48.118;9.992;2023-05-01T03:16:00;8.70;99.90
22503;DHT22;11418;48.118;9.992;2023-05-01T03:20:01;8.60;99.90
22503;DHT22;11418;48.118;9.992;2023-05-01T03:24:01;8.50;99.90
22503;DHT22;11418;48.118;9.992;2023-05-01T03:28:02;8.00;99.90
22503;DHT22;11418;48.118;9.992;2023-05-01T03:32:03;7.70;99.90
22503;DHT22;11418;48.118;9.992;2023-05-01T03:36:04;7.60;99.90
22503;DHT22;11418;48.118;9.992;2023-05-01T03:40:05;7.50;99.90
22503;DHT22;11418;48.118;9.992;2023-05-01T03:44:06;7.50;99.90
22503;DHT22;11418;48.118;9.992;2023-05-01T03:48:06;7.60;99.90
22503;DHT22;11418;48.118;9.992;2023-05-01T03:52:06;7.70;99.90
22503;DHT22;11418;48.118;9.992;2023-05-01T03:56:07;7.90;99.90
22503;DHT22;11418;48.118;9.992;2023-05-01T04:00:08;8.20;99.90
22503;DHT22;11418;48.118;9.992;2023-05-01T04:04:10;8.50;99.90
22503;DHT22;11418;48.118;9.992;2023-05-01T04:08:11;8.70;99.90
22503;DHT22;11418;48.118;9.992;2023-05-01T04:12:12;8.80;99.90
22503;DHT22;11418;48.118;9.992;2023-05-01T04:16:12;8.50;99.90
22503;DHT22;11418;48.118;9.992;2023-05-01T04:20:13;8.60;99.90
22503;DHT22;11418;48.118;9.992;2023-05-01T04:24:15;8.40;99.90
22503;DHT22;11418;48.118;9.992;2023-05-01T04:28:16;8.20;99.90
22503;DHT22;11418;48.118;9.992;2023-05-01T04:32:16;8.30;99.90
22503;DHT22;11418;48.118;9.992;2023-05-01T04:36:17;8.10;99.90
22503;DHT22;11418;48.118;9.992;2023-05-01T04:40:17;7.80;99.90
22503;DHT22;11418;48.118;9.992;2023-05-01T04:44:18;7.80;99.90
22503;DHT22;11418;48.118;9.992;2023-05-01T04:48:18;7.70;99.90
22503;DHT22;11418;48.118;9.992;2023-05-01T04:52:19;7.90;99.90
22503;DHT22;11418;48.118;9.992;2023-05-01T04:56:19;8.40;99.90
22503;DHT22;11418;48.118;9.992;2023-05-01T05:00:20;8.80;99.90
22503;DHT22;11418;48.118;9.992;2023-05-01T05:04:21;8.80;99.90
22503;DHT22;11418;48.118;9.992;2023-05-01T05:08:21;8.90;99.90
22503;DHT22;11418;48.118;9.992;2023-05-01T05:12:21;8.80;99.90
22503;DHT22;11418;48.118;9.992;2023-05-01T05:16:22;8.80;99.90
22503;DHT22;11418;48.118;9.992;2023-05-01T05:20:22;8.70;99.90
22503;DHT22;11418;48.118;9.992;2023-05-01T05:24:23;8.80;99.90
22503;DHT22;11418;48.118;9.992;2023-05-01T05:28:23;8.90;99.90
22503;DHT22;11418;48.118;9.992;2023-05-01T05:32:24;8.80;99.90
22503;DHT22;11418;48.118;9.992;2023-05-01T05:36:24;8.70;99.90
22503;DHT22;11418;48.118;9.992;2023-05-01T05:40:26;9.00;99.90
22503;DHT22;11418;48.118;9.992;2023-05-01T05:44:27;9.30;99.90
22503;DHT22;11418;48.118;9.992;2023-05-01T05:48:27;9.10;99.90
22503;DHT22;11418;48.118;9.992;2023-05-01T05:52:28;8.90;99.90
22503;DHT22;11418;48.118;9.992;2023-05-01T05:56:28;9.10;99.90
22503;DHT22;11418;48.118;9.992;2023-05-01T06:00:29;9.60;99.90
22503;DHT22;11418;48.118;9.992;2023-05-01T06:04:29;9.60;99.90
22503;DHT22;11418;48.118;9.992;2023-05-01T06:08:29;9.30;99.90
22503;DHT22;11418;48.118;9.992;2023-05-01T06:12:30;9.50;99.90
22503;DHT22;11418;48.118;9.992;2023-05-01T06:16:31;9.50;99.90
22503;DHT22;11418;48.118;9.992;2023-05-01T06:20:31;9.70;99.90
22503;DHT22;11418;48.118;9.992;2023-05-01T06:24:32;9.50;99.90
22503;DHT22;11418;48.118;9.992;2023-05-01T06:28:32;9.60;99.90
22503;DHT22;11418;48.118;9.992;2023-05-01T06:32:33;9.80;99.90
22503;DHT22;11418;48.118;9.992;2023-05-01T06:36:33;10.10;99.90
22503;DHT22;11418;48.118;9.992;2023-05-01T06:40:34;10.20;99.90
22503;DHT22;11418;48.118;9.992;2023-05-01T06:44:34;10.30;99.90
22503;DHT22;11418;48.118;9.992;2023-05-01T06:48:35;10.60;99.90
22503;DHT22;11418;48.118;9.992;2023-05-01T06:52:35;10.90;99.90
22503;DHT22;11418;48.118;9.992;2023-05-01T06:56:36;11.30;99.90
22503;DHT22;11418;48.118;9.992;2023-05-01T07:00:36;11.30;99.90
22503;DHT22;11418;48.118;9.992;2023-05-01T07:04:37;11.40;99.90
22503;DHT22;11418;48.118;9.992;2023-05-01T07:08:37;11.10;99.90
22503;DHT22;11418;48.118;9.992;2023-05-01T07:12:38;11.20;99.90
22503;DHT22;11418;48.118;9.992;2023-05-01T07:16:38;11.20;99.90
22503;DHT22;11418;48.118;9.992;2023-05-01T07:20:39;11.50;99.90
22503;DHT22;11418;48.118;9.992;2023-05-01T07:24:40;11.70;99.90
22503;DHT22;11418;48.118;9.992;2023-05-01T07:28:40;11.80;99.90
22503;DHT22;11418;48.118;9.992;2023-05-01T07:32:41;11.60;99.90
22503;DHT22;11418;48.118;9.992;2023-05-01T07:36:41;11.70;99.90
22503;DHT22;11418;48.118;9.992;2023-05-01T07:40:42;12.00;99.90
22503;DHT22;11418;48.118;9.992;2023-05-01T07:44:44;12.00;99.90
22503;DHT22;11418;48.118;9.992;2023-05-01T07:48:44;12.10;99.90
22503;DHT22;11418;48.118;9.992;2023-05-01T07:52:45;12.20;99.90
22503;DHT22;11418;48.118;9.992;2023-05-01T07:56:45;11.90;99.90
22503;DHT22;11418;48.118;9.992;2023-05-01T08:00:46;12.00;99.90
22503;DHT22;11418;48.118;9.992;2023-05-01T08:04:46;12.20;99.90
22503;DHT22;11418;48.118;9.992;2023-05-01T08:08:47;12.50;99.90
22503;DHT22;11418;48.118;9.992;2023-05-01T08:12:47;12.70;99.90
22503;DHT22;11418;48.118;9.992;2023-05-01T08:16:48;12.90;99.90
22503;DHT22;11418;48.118;9.992;2023-05-01T08:20:54;12.90;99.90
22503;DHT22;11418;48.118;9.992;2023-05-01T08:24:55;13.00;99.90
22503;DHT22;11418;48.118;9.992;2023-05-01T08:28:55;13.50;99.90
22503;DHT22;11418;48.118;9.992;2023-05-01T08:32:56;13.50;99.90
22503;DHT22;11418;48.118;9.992;2023-05-01T08:36:57;13.60;99.90
22503;DHT22;11418;48.118;9.992;2023-05-01T08:40:58;13.60;99.90
22503;DHT22;11418;48.118;9.992;2023-05-01T08:45:00;13.70;99.90
22503;DHT22;11418;48.118;9.992;2023-05-01T08:49:03;13.70;99.90
22503;DHT22;11418;48.118;9.992;2023-05-01T08:53:04;13.90;99.90
22503;DHT22;11418;48.118;9.992;2023-05-01T08:57:05;13.90;99.90
22503;DHT22;11418;48.118;9.992;2023-05-01T09:01:08;13.90;99.90
22503;DHT22;11418;48.118;9.992;2023-05-01T09:05:09;13.90;99.90
22503;DHT22;11418;48.118;9.992;2023-05-01T09:09:09;14.00;99.90
22503;DHT22;11418;48.118;9.992;2023-05-01T09:13:10;13.80;99.90
22503;DHT22;11418;48.118;9.992;2023-05-01T09:17:11;13.90;99.90
22503;DHT22;11418;48.118;9.992;2023-05-01T09:21:11;14.20;99.90
22503;DHT22;11418;48.118;9.992;2023-05-01T09:25:12;14.20;99.90
22503;DHT22;11418;48.118;9.992;2023-05-01T09:29:13;14.70;99.90
22503;DHT22;11418;48.118;9.992;2023-05-01T09:33:33;14.40;99.90
22503;DHT22;11418;48.118;9.992;2023-05-01T09:37:33;14.60;99.90
22503;DHT22;11418;48.118;9.992;2023-05-01T09:41:34;14.90;99.90
22503;DHT22;11418;48.118;9.992;2023-05-01T09:45:35;15.20;99.90
22503;DHT22;11418;48.118;9.992;2023-05-01T09:49:43;15.30;99.90
22503;DHT22;11418;48.118;9.992;2023-05-01T09:53:43;15.60;99.90
22503;DHT22;11418;48.118;9.992;2023-05-01T09:57:45;15.60;99.90
22503;DHT22;11418;48.118;9.992;2023-05-01T10:01:46;15.50;99.90
22503;DHT22;11418;48.118;9.992;2023-05-01T10:05:48;15.90;99.90
22503;DHT22;11418;48.118;9.992;2023-05-01T10:09:48;16.60;99.90
22503;DHT22;11418;48.118;9.992;2023-05-01T10:14:09;17.00;99.90
22503;DHT22;11418;48.118;9.992;2023-05-01T10:18:10;17.20;99.90
22503;DHT22;11418;48.118;9.992;2023-05-01T10:22:11;17.50;99.90
22503;DHT22;11418;48.118;9.992;2023-05-01T10:26:12;17.90;99.90
22503;DHT22;11418;48.118;9.992;2023-05-01T10:30:13;19.00;99.90
22503;DHT22;11418;48.118;9.992;2023-05-01T10:34:17;19.30;99.90
22503;DHT22;11418;48.118;9.992;2023-05-01T10:38:21;19.60;99.90
22503;DHT22;11418;48.118;9.992;2023-05-01T10:42:23;20.00;99.90
22503;DHT22;11418;48.118;9.992;2023-05-01T10:50:26;20.30;99.90
22503;DHT22;11418;48.118;9.992;2023-05-01T10:54:27;20.00;99.90
22503;DHT22;11418;48.118;9.992;2023-05-01T11:02:34;19.40;99.90
22503;DHT22;11418;48.118;9.992;2023-05-01T11:06:34;19.30;99.90
22503;DHT22;11418;48.118;9.992;2023-05-01T11:10:35;19.50;99.90
22503;DHT22;11418;48.118;9.992;2023-05-01T11:18:56;20.50;99.90
22503;DHT22;11418;48.118;9.992;2023-05-01T11:22:56;20.50;99.90
22503;DHT22;11418;48.118;9.992;2023-05-01T11:26:57;20.30;99.90
22503;DHT22;11418;48.118;9.992;2023-05-01T11:30:59;20.20;99.90
22503;DHT22;11418;48.118;9.992;2023-05-01T11:34:59;20.60;99.90
22503;DHT22;11418;48.118;9.992;2023-05-01T11:39:00;21.10;99.90
22503;DHT22;11418;48.118;9.992;2023-05-01T11:43:01;21.30;99.90
22503;DHT22;11418;48.118;9.992;2023-05-01T11:47:02;22.20;99.90
22503;DHT22;11418;48.118;9.992;2023-05-01T11:51:10;21.90;99.90
22503;DHT22;11418;48.118;9.992;2023-05-01T11:55:11;21.40;99.90
22503;DHT22;11418;48.118;9.992;2023-05-01T11:59:12;21.40;99.90
22503;DHT22;11418;48.118;9.992;2023-05-01T12:03:14;20.70;99.90
22503;DHT22;11418;48.118;9.992;2023-05-01T12:07:21;19.70;99.90
22503;DHT22;11418;48.118;9.992;2023-05-01T12:11:22;18.70;99.90
22503;DHT22;11418;48.118;9.992;2023-05-01T12:15:23;17.30;99.90
22503;DHT22;11418;48.118;9.992;2023-05-01T12:19:23;16.20;99.90
22503;DHT22;11418;48.118;9.992;2023-05-01T12:23:32;15.10;99.90
22503;DHT22;11418;48.118;9.992;2023-05-01T12:27:41;14.70;99.90
22503;DHT22;11418;48.118;9.992;2023-05-01T12:31:45;14.20;99.90
22503;DHT22;11418;48.118;9.992;2023-05-01T12:35:46;13.80;99.90
22503;DHT22;11418;48.118;9.992;2023-05-01T12:39:47;13.50;99.90
22503;DHT22;11418;48.118;9.992;2023-05-01T12:43:47;13.30;99.90
22503;DHT22;11418;48.118;9.992;2023-05-01T12:47:48;13.30;99.90
22503;DHT22;11418;48.118;9.992;2023-05-01T12:51:49;13.40;99.90
22503;DHT22;11418;48.118;9.992;2023-05-01T12:55:54;13.60;99.90
22503;DHT22;11418;48.118;9.992;2023-05-01T12:59:58;14.00;99.90
22503;DHT22;11418;48.118;9.992;2023-05-01T13:04:00;14.40;99.90
22503;DHT22;11418;48.118;9.992;2023-05-01T13:08:01;14.90;99.90
22503;DHT22;11418;48.118;9.992;2023-05-01T13:12:02;15.80;99.90
22503;DHT22;11418;48.118;9.992;2023-05-01T13:16:08;16.60;99.90
22503;DHT22;11418;48.118;9.992;2023-05-01T13:20:10;17.50;99.90
22503;DHT22;11418;48.118;9.992;2023-05-01T13:24:11;17.60;99.90
22503;DHT22;11418;48.118;9.992;2023-05-01T13:28:16;18.10;99.90
22503;DHT22;11418;48.118;9.992;2023-05-01T13:32:16;19.10;99.90
22503;DHT22;11418;48.118;9.992;2023-05-01T13:36:17;19.00;99.90
22503;DHT22;11418;48.118;9.992;2023-05-01T13:40:18;18.70;99.90
22503;DHT22;11418;48.118;9.992;2023-05-01T13:44:19;18.10;99.90
22503;DHT22;11418;48.118;9.992;2023-05-01T13:48:20;18.20;99.90
22503;DHT22;11418;48.118;9.992;2023-05-01T13:52:21;18.30;99.90
22503;DHT22;11418;48.118;9.992;2023-05-01T13:56:22;19.00;99.90
22503;DHT22;11418;48.118;9.992;2023-05-01T14:00:22;20.30;99.90
22503;DHT22;11418;48.118;9.992;2023-05-01T14:04:23;20.30;99.90
22503;DHT22;11418;48.118;9.992;2023-05-01T14:08:24;19.60;99.90
22503;DHT22;11418;48.118;9.992;2023-05-01T14:12:30;19.00;99.90
22503;DHT22;11418;48.118;9.992;2023-05-01T14:16:30;18.60;99.90
22503;DHT22;11418;48.118;9.992;2023-05-01T14:20:31;18.30;99.90
22503;DHT22;11418;48.118;9.992;2023-05-01T14:24:34;18.10;99.90
22503;DHT22;11418;48.118;9.992;2023-05-01T14:28:40;18.00;99.90
22503;DHT22;11418;48.118;9.992;2023-05-01T14:32:40;17.90;99.90
22503;DHT22;11418;48.118;9.992;2023-05-01T14:36:41;17.90;99.90
22503;DHT22;11418;48.118;9.992;2023-05-01T14:40:43;17.60;99.90
22503;DHT22;11418;48.118;9.992;2023-05-01T14:44:43;17.20;99.90
22503;DHT22;11418;48.118;9.992;2023-05-01T14:48:44;16.70;99.90
22503;DHT22;11418;48.118;9.992;2023-05-01T14:52:44;15.90;99.90
22503;DHT22;11418;48.118;9.992;2023-05-01T14:56:46;15.60;99.90
22503;DHT22;11418;48.118;9.992;2023-05-01T15:00:46;14.90;99.90
22503;DHT22;11418;48.118;9.992;2023-05-01T15:04:47;14.40;99.90
22503;DHT22;11418;48.118;9.992;2023-05-01T15:08:47;14.30;99.90
22503;DHT22;11418;48.118;9.992;2023-05-01T15:12:48;13.90;99.90
22503;DHT22;11418;48.118;9.992;2023-05-01T15:16:48;13.60;99.90
22503;DHT22;11418;48.118;9.992;2023-05-01T15:20:49;13.50;99.90
22503;DHT22;11418;48.118;9.992;2023-05-01T15:24:49;14.00;99.90
22503;DHT22;11418;48.118;9.992;2023-05-01T15:28:50;14.40;99.90
22503;DHT22;11418;48.118;9.992;2023-05-01T15:32:51;14.60;99.90
22503;DHT22;11418;48.118;9.992;2023-05-01T15:36:51;14.80;99.90
22503;DHT22;11418;48.118;9.992;2023-05-01T15:40:52;15.10;99.90
22503;DHT22;11418;48.118;9.992;2023-05-01T15:44:53;15.40;99.90
22503;DHT22;11418;48.118;9.992;2023-05-01T15:48:53;15.50;99.90
22503;DHT22;11418;48.118;9.992;2023-05-01T15:52:54;15.40;99.90
22503;DHT22;11418;48.118;9.992;2023-05-01T15:56:55;15.30;99.90
22503;DHT22;11418;48.118;9.992;2023-05-01T16:00:56;15.20;99.90
22503;DHT22;11418;48.118;9.992;2023-05-01T16:04:57;15.10;99.90
22503;DHT22;11418;48.118;9.992;2023-05-01T16:08:57;14.80;99.90
22503;DHT22;11418;48.118;9.992;2023-05-01T16:12:58;14.70;99.90
22503;DHT22;11418;48.118;9.992;2023-05-01T16:16:58;14.70;99.90
22503;DHT22;11418;48.118;9.992;2023-05-01T16:20:59;14.70;99.90
22503;DHT22;11418;48.118;9.992;2023-05-01T16:25:00;14.40;99.90
22503;DHT22;11418;48.118;9.992;2023-05-01T16:29:03;14.00;99.90
22503;DHT22;11418;48.118;9.992;2023-05-01T16:33:04;14.00;99.90
22503;DHT22;11418;48.118;9.992;2023-05-01T16:37:07;13.90;99.90
22503;DHT22;11418;48.118;9.992;2023-05-01T16:41:08;13.60;99.90
22503;DHT22;11418;48.118;9.992;2023-05-01T16:45:08;13.30;99.90
22503;DHT22;11418;48.118;9.992;2023-05-01T16:49:09;13.00;99.90
22503;DHT22;11418;48.118;9.992;2023-05-01T16:53:10;13.10;99.90
22503;DHT22;11418;48.118;9.992;2023-05-01T16:57:10;12.60;99.90
22503;DHT22;11418;48.118;9.992;2023-05-01T17:01:11;12.10;99.90
22503;DHT22;11418;48.118;9.992;2023-05-01T17:05:12;11.40;99.90
22503;DHT22;11418;48.118;9.992;2023-05-01T17:09:13;11.10;99.90
22503;DHT22;11418;48.118;9.992;2023-05-01T17:13:13;10.90;99.90
22503;DHT22;11418;48.118;9.992;2023-05-01T17:17:15;10.70;99.90
22503;DHT22;11418;48.118;9.992;2023-05-01T17:21:17;10.60;99.90
22503;DHT22;11418;48.118;9.992;2023-05-01T17:25:17;10.50;99.90
22503;DHT22;11418;48.118;9.992;2023-05-01T17:29:18;10.70;99.90
22503;DHT22;11418;48.118;9.992;2023-05-01T17:33:18;10.40;99.90
22503;DHT22;11418;48.118;9.992;2023-05-01T17:37:19;10.50;99.90
22503;DHT22;11418;48.118;9.992;2023-05-01T17:41:19;10.90;99.90
22503;DHT22;11418;48.118;9.992;2023-05-01T17:45:20;11.00;99.90
22503;DHT22;11418;48.118;9.992;2023-05-01T17:49:20;10.90;99.90
22503;DHT22;11418;48.118;9.992;2023-05-01T17:53:22;10.60;99.90
22503;DHT22;11418;48.118;9.992;2023-05-01T17:57:23;10.60;99.90
22503;DHT22;11418;48.118;9.992;2023-05-01T18:01:23;10.30;99.90
22503;DHT22;11418;48.118;9.992;2023-05-01T18:05:24;10.20;99.90
22503;DHT22;11418;48.118;9.992;2023-05-01T18:09:25;10.30;99.90
22503;DHT22;11418;48.118;9.992;2023-05-01T18:13:25;10.40;99.90
22503;DHT22;11418;48.118;9.992;2023-05-01T18:17:28;10.30;99.90
22503;DHT22;11418;48.118;9.992;2023-05-01T18:21:28;10.40;99.90
22503;DHT22;11418;48.118;9.992;2023-05-01T18:25:29;10.40;99.90
22503;DHT22;11418;48.118;9.992;2023-05-01T18:29:30;10.40;99.90
22503;DHT22;11418;48.118;9.992;2023-05-01T18:33:30;10.60;99.90
22503;DHT22;11418;48.118;9.992;2023-05-01T18:37:31;10.60;99.90
22503;DHT22;11418;48.118;9.992;2023-05-01T18:41:31;10.50;99.90
22503;DHT22;11418;48.118;9.992;2023-05-01T18:45:32;10.60;99.90
22503;DHT22;11418;48.118;9.992;2023-05-01T18:49:32;10.70;99.90
22503;DHT22;11418;48.118;9.992;2023-05-01T18:53:33;10.60;99.90
22503;DHT22;11418;48.118;9.992;2023-05-01T18:57:34;10.50;99.90
22503;DHT22;11418;48.118;9.992;2023-05-01T19:01:35;10.20;99.90
22503;DHT22;11418;48.118;9.992;2023-05-01T19:05:36;10.00;99.90
22503;DHT22;11418;48.118;9.992;2023-05-01T19:09:36;10.10;99.90
22503;DHT22;11418;48.118;9.992;2023-05-01T19:13:37;10.10;99.90
22503;DHT22;11418;48.118;9.992;2023-05-01T19:17:37;10.10;99.90
22503;DHT22;11418;48.118;9.992;2023-05-01T19:21:38;10.00;99.90
22503;DHT22;11418;48.118;9.992;2023-05-01T19:25:38;9.80;99.90
22503;DHT22;11418;48.118;9.992;2023-05-01T19:29:39;9.80;99.90
22503;DHT22;11418;48.118;9.992;2023-05-01T19:33:39;9.70;99.90
22503;DHT22;11418;48.118;9.992;2023-05-01T19:37:40;9.90;99.90
22503;DHT22;11418;48.118;9.992;2023-05-01T19:41:40;9.70;99.90
22503;DHT22;11418;48.118;9.992;2023-05-01T19:45:41;9.80;99.90
22503;DHT22;11418;48.118;9.992;2023-05-01T19:49:42;9.90;99.90
22503;DHT22;11418;48.118;9.992;2023-05-01T19:53:44;10.10;99.90
22503;DHT22;11418;48.118;9.992;2023-05-01T19:57:44;10.00;99.90
22503;DHT22;11418;48.118;9.992;2023-05-01T20:01:45;10.10;99.90
22503;DHT22;11418;48.118;9.992;2023-05-01T20:05:45;10.20;99.90
22503;DHT22;11418;48.118;9.992;2023-05-01T20:09:46;10.20;99.90
22503;DHT22;11418;48.118;9.992;2023-05-01T20:13:46;10.10;99.90
22503;DHT22;11418;48.118;9.992;2023-05-01T20:17:47;10.40;99.90
22503;DHT22;11418;48.118;9.992;2023-05-01T20:21:50;10.50;99.90
22503;DHT22;11418;48.118;9.992;2023-05-01T20:25:50;10.60;99.90
22503;DHT22;11418;48.118;9.992;2023-05-01T20:29:52;10.30;99.90
22503;DHT22;11418;48.118;9.992;2023-05-01T20:33:53;10.20;99.90
22503;DHT22;11418;48.118;9.992;2023-05-01T20:37:53;10.20;99.90
22503;DHT22;11418;48.118;9.992;2023-05-01T20:41:53;10.20;99.90
22503;DHT22;11418;48.118;9.992;2023-05-01T20:45:55;10.10;99.90
22503;DHT22;11418;48.118;9.992;2023-05-01T20:49:55;9.90;99.90
22503;DHT22;11418;48.118;9.992;2023-05-01T20:53:56;10.00;99.90
22503;DHT22;11418;48.118;9.992;2023-05-01T20:57:56;10.00;99.90
22503;DHT22;11418;48.118;9.992;2023-05-01T21:02:01;9.90;99.90
22503;DHT22;11418;48.118;9.992;2023-05-01T21:06:02;9.80;99.90
22503;DHT22;11418;48.118;9.992;2023-05-01T21:10:06;9.80;99.90
22503;DHT22;11418;48.118;9.992;2023-05-01T21:14:07;9.70;99.90
22503;DHT22;11418;48.118;9.992;2023-05-01T21:18:08;9.70;99.90
22503;DHT22;11418;48.118;9.992;2023-05-01T21:22:22;9.70;99.90
22503;DHT22;11418;48.118;9.992;2023-05-01T21:26:22;9.80;99.90
22503;DHT22;11418;48.118;9.992;2023-05-01T21:30:32;9.80;99.90
22503;DHT22;11418;48.118;9.992;2023-05-01T21:34:33;9.80;99.90
22503;DHT22;11418;48.118;9.992;2023-05-01T21:38:34;9.80;99.90
22503;DHT22;11418;48.118;9.992;2023-05-01T21:42:35;9.70;99.90
22503;DHT22;11418;48.118;9.992;2023-05-01T21:46:37;9.80;99.90
22503;DHT22;11418;48.118;9.992;2023-05-01T21:50:37;9.80;99.90
22503;DHT22;11418;48.118;9.992;2023-05-01T21:54:38;9.60;99.90
22503;DHT22;11418;48.118;9.992;2023-05-01T21:58:38;9.50;99.90
22503;DHT22;11418;48.118;9.992;2023-05-01T22:02:39;9.60;99.90
22503;DHT22;11418;48.118;9.992;2023-05-01T22:06:40;9.50;99.90
22503;DHT22;11418;48.118;9.992;2023-05-01T22:10:41;9.50;99.90
22503;DHT22;11418;48.118;9.992;2023-05-01T22:14:42;9.40;99.90
22503;DHT22;11418;48.118;9.992;2023-05-01T22:18:42;9.40;99.90
22503;DHT22;11418;48.118;9.992;2023-05-01T22:22:43;9.20;99.90
22503;DHT22;11418;48.118;9.992;2023-05-01T22:26:43;9.20;99.90
22503;DHT22;11418;48.118;9.992;2023-05-01T22:30:44;9.10;99.90
22503;DHT22;11418;48.118;9.992;2023-05-01T22:34:44;9.10;99.90
22503;DHT22;11418;48.118;9.992;2023-05-01T22:38:45;9.20;99.90
22503;DHT22;11418;48.118;9.992;2023-05-01T22:42:45;9.10;99.90
22503;DHT22;11418;48.118;9.992;2023-05-01T22:46:46;9.10;99.90
22503;DHT22;11418;48.118;9.992;2023-05-01T22:50:47;9.30;99.90
22503;DHT22;11418;48.118;9.992;2023-05-01T22:54:47;9.20;99.90
22503;DHT22;11418;48.118;9.992;2023-05-01T22:58:49;9.10;99.90
22503;DHT22;11418;48.118;9.992;2023-05-01T23:02:50;9.00;99.90
22503;DHT22;11418;48.118;9.992;2023-05-01T23:06:51;8.90;99.90
22503;DHT22;11418;48.118;9.992;2023-05-01T23:10:51;8.80;99.90
22503;DHT22;11418;48.118;9.992;2023-05-01T23:14:52;8.90;99.90
22503;DHT22;11418;48.118;9.992;2023-05-01T23:18:54;8.80;99.90
22503;DHT22;11418;48.118;9.992;2023-05-01T23:22:54;8.80;99.90
22503;DHT22;11418;48.118;9.992;2023-05-01T23:26:55;8.80;99.90
22503;DHT22;11418;48.118;9.992;2023-05-01T23:30:57;8.80;99.90
22503;DHT22;11418;48.118;9.992;2023-05-01T23:34:59;8.60;99.90
22503;DHT22;11418;48.118;9.992;2023-05-01T23:39:00;8.80;99.90
22503;DHT22;11418;48.118;9.992;2023-05-01T23:43:00;8.70;99.90
22503;DHT22;11418;48.118;9.992;2023-05-01T23:47:01;8.60;99.90
22503;DHT22;11418;48.118;9.992;2023-05-01T23:51:01;8.40;99.90
22503;DHT22;11418;48.118;9.992;2023-05-01T23:55:02;8.30;99.90
22503;DHT22;11418;48.118;9.992;2023-05-01T23:59:03;8.40;99.90
